Time;durP1;ratioP1;P1;durP2;ratioP2;P2;SDS_P1;SDS_P2;PMS_P1;PMS_P2;Temp;Humidity;BMP_temperature;BMP_pressure;BME280_temperature;BME280_humidity;BME280_pressure;Samples;Min_cycle;Max_cycle;Signal;HPM_P1;HPM_P2
2022/10/17 05:02:53;;;;;;;11.70;6.28;;;11.70;99.90;;;;;;6168500;23;20032;-71
2022/10/17 05:05:19;;;;;;;13.82;6.78;;;11.70;99.90;;;;;;6248420;23;20011;-72
2022/10/17 05:07:48;;;;;;;11.43;6.68;;;11.70;99.90;;;;;;6223698;23;20016;-70
2022/10/17 05:10:19;;;;;;;9.70;5.35;;;11.80;99.90;;;;;;6247608;23;20234;-71
2022/10/17 05:12:48;;;;;;;8.52;5.30;;;11.70;99.90;;;;;;6247930;23;20234;-70
2022/10/17 05:15:16;;;;;;;8.65;5.15;;;11.70;99.90;;;;;;6247346;23;20001;-73
2022/10/17 05:17:42;;;;;;;10.50;5.38;;;11.70;99.90;;;;;;6247866;23;20001;-71
2022/10/17 05:20:10;;;;;;;10.02;5.40;;;11.70;99.90;;;;;;6247536;23;19996;-72
2022/10/17 05:22:38;;;;;;;8.65;5.53;;;11.70;99.90;;;;;;6223067;23;20277;-72
2022/10/17 05:25:04;;;;;;;9.77;5.38;;;11.70;99.90;;;;;;6247144;23;20131;-72
2022/10/17 05:27:31;;;;;;;12.60;6.50;;;11.70;99.90;;;;;;6222532;23;20004;-71
2022/10/17 05:29:56;;;;;;;9.93;6.10;;;11.60;99.90;;;;;;6247146;23;20067;-71
2022/10/17 05:32:26;;;;;;;13.20;6.68;;;11.70;99.90;;;;;;6222446;23;20008;-72
2022/10/17 05:34:52;;;;;;;11.52;6.13;;;11.70;99.90;;;;;;6223934;23;20051;-70
2022/10/17 05:37:20;;;;;;;11.88;5.82;;;11.70;99.90;;;;;;6246978;23;20012;-72
2022/10/17 05:39:49;;;;;;;11.02;6.25;;;11.70;99.90;;;;;;6247552;23;20068;-72
2022/10/17 05:42:15;;;;;;;12.18;5.90;;;11.70;99.90;;;;;;6247304;23;20009;-71
2022/10/17 05:44:41;;;;;;;11.20;5.35;;;11.70;99.90;;;;;;6223431;23;20001;-72
2022/10/17 05:47:08;;;;;;;9.02;5.30;;;11.70;99.90;;;;;;6222057;23;20005;-71
2022/10/17 05:49:33;;;;;;;8.70;5.40;;;11.70;99.90;;;;;;6246811;23;20015;-72
2022/10/17 05:52:00;;;;;;;13.60;6.07;;;11.70;99.90;;;;;;6222434;23;20298;-71
2022/10/17 05:54:27;;;;;;;8.93;5.50;;;11.70;99.90;;;;;;6221456;23;19988;-71
2022/10/17 05:56:54;;;;;;;9.15;5.57;;;11.80;99.90;;;;;;6247392;23;20011;-71
2022/10/17 05:59:27;;;;;;;6.47;4.25;;;11.80;99.90;;;;;;6246702;23;20008;-69
2022/10/17 06:01:57;;;;;;;9.57;4.85;;;11.80;99.90;;;;;;6258322;22;20015;-71
2022/10/17 06:04:22;;;;;;;9.25;4.75;;;11.80;99.90;;;;;;6282682;22;20295;-70
2022/10/17 06:06:48;;;;;;;8.93;5.38;;;11.80;99.90;;;;;;6257686;22;20007;-72
2022/10/17 06:09:14;;;;;;;13.55;5.72;;;11.80;99.90;;;;;;6283011;22;20027;-70
2022/10/17 06:11:43;;;;;;;9.18;5.20;;;11.80;99.90;;;;;;6284945;22;20331;-71
2022/10/17 06:14:10;;;;;;;11.65;5.45;;;11.90;99.90;;;;;;6285400;22;20003;-70
2022/10/17 06:16:37;;;;;;;10.02;5.60;;;11.80;99.90;;;;;;6284597;22;19998;-71
2022/10/17 06:19:03;;;;;;;9.30;6.00;;;11.90;99.90;;;;;;6259578;22;20003;-72
2022/10/17 06:21:33;;;;;;;14.13;5.70;;;12.00;99.90;;;;;;6258862;22;20285;-71
2022/10/17 06:24:05;;;;;;;9.43;4.60;;;12.00;99.90;;;;;;6259657;22;20343;-70
2022/10/17 06:26:34;;;;;;;10.18;4.95;;;12.10;99.90;;;;;;6284107;22;20011;-71
2022/10/17 06:28:59;;;;;;;12.07;5.13;;;12.10;99.90;;;;;;6286058;22;19999;-71
2022/10/17 06:31:30;;;;;;;15.23;6.05;;;12.10;99.90;;;;;;6284456;22;20033;-70
2022/10/17 06:33:55;;;;;;;10.63;5.40;;;12.20;99.90;;;;;;6284463;22;20023;-69
2022/10/17 06:36:21;;;;;;;9.40;4.95;;;12.30;99.90;;;;;;6283807;22;20011;-69
2022/10/17 06:38:49;;;;;;;11.18;4.75;;;12.30;99.90;;;;;;6285452;22;20004;-71
2022/10/17 06:41:22;;;;;;;8.88;4.70;;;12.40;99.90;;;;;;6258777;22;20039;-71
2022/10/17 06:43:51;;;;;;;10.73;5.47;;;12.50;99.90;;;;;;6285270;22;20277;-71
2022/10/17 06:46:44;;;;;;;18.45;6.35;;;12.60;99.90;;;;;;6284767;22;20007;-69
2022/10/17 06:49:13;;;;;;;15.65;4.97;;;12.70;99.90;;;;;;6284500;22;20053;-70
2022/10/17 06:51:47;;;;;;;12.23;5.38;;;12.80;99.90;;;;;;6296685;22;20012;-69
2022/10/17 06:54:16;;;;;;;7.80;4.57;;;12.90;99.90;;;;;;6284493;22;20192;-70
2022/10/17 06:57:17;;;;;;;10.27;4.78;;;13.00;99.90;;;;;;6191664;23;20013;-70
2022/10/17 07:00:05;;;;;;;7.78;3.50;;;13.10;99.90;;;;;;6278786;22;20049;-69
2022/10/17 07:02:38;;;;;;;10.98;5.03;;;13.20;99.90;;;;;;6282060;22;20073;-69
2022/10/17 07:05:04;;;;;;;10.48;4.05;;;13.30;99.90;;;;;;6257470;22;20024;-70
2022/10/17 07:07:31;;;;;;;7.32;3.83;;;13.50;99.90;;;;;;6283711;22;20038;-71
2022/10/17 07:09:57;;;;;;;11.80;4.57;;;13.60;99.90;;;;;;6284889;22;20010;-71
2022/10/17 07:12:23;;;;;;;11.38;4.85;;;13.80;99.90;;;;;;6257676;22;20057;-71
2022/10/17 07:14:49;;;;;;;11.20;4.40;;;13.90;99.90;;;;;;6257610;22;20110;-70
2022/10/17 07:17:16;;;;;;;10.45;3.72;;;14.10;99.90;;;;;;6284226;22;20016;-69
2022/10/17 07:19:42;;;;;;;9.48;3.25;;;14.30;99.90;;;;;;6256727;22;20067;-70
2022/10/17 07:22:09;;;;;;;6.22;3.00;;;14.30;99.90;;;;;;6284428;22;20010;-70
2022/10/17 07:24:37;;;;;;;8.40;3.00;;;14.40;99.90;;;;;;6256618;22;20069;-69
2022/10/17 07:27:17;;;;;;;9.55;2.88;;;14.40;99.90;;;;;;6283024;22;20045;-70
2022/10/17 07:29:50;;;;;;;7.72;2.72;;;14.50;99.90;;;;;;6257148;22;20024;-70
2022/10/17 07:32:22;;;;;;;9.93;3.10;;;14.70;99.90;;;;;;6257555;22;20039;-71
2022/10/17 07:34:48;;;;;;;7.28;3.00;;;14.80;99.90;;;;;;6284183;22;20003;-70
2022/10/17 07:37:14;;;;;;;6.00;3.13;;;14.90;99.90;;;;;;6257342;22;20004;-70
2022/10/17 07:39:45;;;;;;;6.38;3.15;;;15.00;99.90;;;;;;6282252;22;20047;-71
2022/10/17 07:42:13;;;;;;;5.90;3.00;;;15.10;99.90;;;;;;6282783;22;20225;-70
2022/10/17 07:44:39;;;;;;;6.93;3.47;;;15.10;99.90;;;;;;6256698;22;20017;-71
2022/10/17 07:47:05;;;;;;;8.35;3.00;;;15.20;99.90;;;;;;6283130;22;20004;-70
2022/10/17 07:49:31;;;;;;;9.50;3.33;;;15.30;99.90;;;;;;6282145;22;20327;-70
2022/10/17 07:51:57;;;;;;;10.73;3.45;;;15.40;99.90;;;;;;6284060;22;20000;-70
2022/10/17 07:54:22;;;;;;;10.70;3.55;;;15.50;99.90;;;;;;6284317;22;20004;-71
2022/10/17 07:56:49;;;;;;;8.57;3.42;;;15.50;99.90;;;;;;6283572;22;20012;-70
2022/10/17 07:59:18;;;;;;;10.38;3.08;;;15.60;99.90;;;;;;6283889;22;20031;-75
2022/10/17 08:01:44;;;;;;;9.10;3.13;;;15.70;99.90;;;;;;6282775;22;20212;-70
2022/10/17 08:04:10;;;;;;;7.15;3.10;;;15.80;99.90;;;;;;6283956;22;20046;-71
2022/10/17 08:06:36;;;;;;;9.75;3.53;;;15.90;99.90;;;;;;6283611;22;20000;-72
2022/10/17 08:09:02;;;;;;;9.50;3.05;;;16.00;99.90;;;;;;6284398;22;20008;-70
2022/10/17 08:11:28;;;;;;;8.77;2.88;;;16.00;99.90;;;;;;6283679;22;20014;-71
2022/10/17 08:13:53;;;;;;;7.75;3.22;;;16.00;99.90;;;;;;6283765;22;20022;-71
2022/10/17 08:16:19;;;;;;;11.73;3.33;;;16.10;99.90;;;;;;6283757;22;20024;-71
2022/10/17 08:18:45;;;;;;;6.43;2.78;;;16.10;99.90;;;;;;6283389;22;20030;-71
2022/10/17 08:21:12;;;;;;;10.18;2.80;;;16.30;99.90;;;;;;6283631;22;20018;-71
2022/10/17 08:23:37;;;;;;;4.80;3.05;;;16.40;99.90;;;;;;6283015;22;19999;-72
2022/10/17 08:26:07;;;;;;;8.32;3.20;;;16.40;99.90;;;;;;6284230;22;20014;-72
2022/10/17 08:28:34;;;;;;;6.15;2.80;;;16.50;99.90;;;;;;6283480;22;20399;-70
2022/10/17 08:31:09;;;;;;;7.23;2.70;;;16.60;99.90;;;;;;6283801;22;19992;-71
2022/10/17 08:33:35;;;;;;;13.07;3.17;;;16.70;99.90;;;;;;6282816;22;20023;-72
2022/10/17 08:36:03;;;;;;;9.65;3.20;;;16.60;99.90;;;;;;6283544;22;20020;-70
2022/10/17 08:38:29;;;;;;;6.38;2.88;;;16.70;99.90;;;;;;6283709;22;19995;-71
2022/10/17 08:41:00;;;;;;;11.60;2.90;;;16.80;99.90;;;;;;6283474;22;20034;-70
2022/10/17 08:43:46;;;;;;;7.78;4.13;;;16.80;99.90;;;;;;6283401;22;20023;-71
2022/10/17 08:46:12;;;;;;;13.27;6.28;;;16.90;99.90;;;;;;6284250;22;20003;-71
2022/10/17 08:48:45;;;;;;;7.90;4.97;;;16.90;99.90;;;;;;6283077;22;20273;-71
2022/10/17 08:51:33;;;;;;;9.18;2.83;;;17.00;99.90;;;;;;6284019;22;20004;-71
2022/10/17 08:54:02;;;;;;;;;;;17.30;99.90;;;;;;6257575;22;20004;-72
2022/10/17 08:56:49;;;;;;;11.05;7.38;;;17.50;99.90;;;;;;6283626;22;20177;-72
2022/10/17 08:59:25;;;;;;;11.80;8.02;;;17.70;99.90;;;;;;6283427;22;20019;-72
2022/10/17 09:02:01;;;;;;;12.13;3.75;;;17.90;99.90;;;;;;6282669;22;20197;-71
2022/10/17 09:04:44;;;;;;;5.45;2.58;;;18.00;99.90;;;;;;6283918;22;20000;-71
2022/10/17 09:07:28;;;;;;;7.20;2.80;;;18.20;99.90;;;;;;6284248;22;20027;-70
2022/10/17 09:10:22;;;;;;;10.98;3.75;;;18.40;99.90;;;;;;6283024;22;20051;-73
2022/10/17 09:13:22;;;;;;;7.35;3.10;;;18.60;99.90;;;;;;6282740;22;20336;-72
2022/10/17 09:16:19;;;;;;;9.70;2.75;;;18.70;99.90;;;;;;6201985;22;20003;-72
2022/10/17 09:18:59;;;;;;;9.57;3.22;;;18.80;99.90;;;;;;6282541;22;20065;-72
2022/10/17 09:21:43;;;;;;;5.72;2.50;;;18.80;99.90;;;;;;6283245;22;20007;-71
2022/10/17 09:24:24;;;;;;;5.15;2.17;;;19.00;99.90;;;;;;6283013;22;20286;-71
2022/10/17 09:26:50;;;;;;;9.57;2.83;;;19.00;99.90;;;;;;6282768;22;20015;-71
2022/10/17 09:29:22;;;;;;;7.30;2.20;;;19.10;99.90;;;;;;6281886;22;19984;-71
2022/10/17 09:32:02;;;;;;;9.80;2.40;;;19.10;99.90;;;;;;6282514;22;20310;-70
2022/10/17 09:34:30;;;;;;;10.52;4.88;;;19.20;99.90;;;;;;6283146;22;20046;-72
2022/10/17 09:37:01;;;;;;;7.43;2.53;;;19.30;99.90;;;;;;6282806;22;20015;-71
2022/10/17 09:39:30;;;;;;;8.63;2.40;;;19.30;99.90;;;;;;6283342;22;19999;-73
2022/10/17 09:41:59;;;;;;;9.65;2.58;;;19.40;99.90;;;;;;6282504;22;20004;-70
2022/10/17 09:44:46;;;;;;;15.65;3.35;;;19.40;99.90;;;;;;6283316;22;20010;-70
2022/10/17 09:47:18;;;;;;;8.55;4.25;;;19.50;99.90;;;;;;6256486;22;20050;-69
2022/10/17 09:49:46;;;;;;;6.00;2.40;;;19.60;99.90;;;;;;6282896;22;20000;-70
2022/10/17 09:52:26;;;;;;;9.35;2.38;;;19.70;99.90;;;;;;6282965;22;20004;-71
2022/10/17 09:55:05;;;;;;;5.65;2.10;;;19.80;99.90;;;;;;6282514;22;20014;-70
2022/10/17 09:57:50;;;;;;;7.30;2.30;;;19.90;99.90;;;;;;6256471;22;20102;-70
2022/10/17 10:00:22;;;;;;;8.95;2.78;;;20.00;99.90;;;;;;6282937;22;20050;-71
2022/10/17 10:02:48;;;;;;;8.30;2.90;;;20.20;99.90;;;;;;6282068;22;20012;-70
2022/10/17 10:05:19;;;;;;;13.13;3.08;;;20.30;99.90;;;;;;6283027;22;20093;-70
2022/10/17 10:08:02;;;;;;;11.45;2.80;;;20.40;99.90;;;;;;6282754;22;20004;-70
2022/10/17 10:10:29;;;;;;;11.18;3.30;;;20.60;99.90;;;;;;6283331;22;20027;-70
2022/10/17 10:13:13;;;;;;;18.88;4.13;;;20.80;99.90;;;;;;6282800;22;20185;-69
2022/10/17 10:15:47;;;;;;;10.95;3.85;;;20.90;99.90;;;;;;6282311;22;19999;-69
2022/10/17 10:18:34;;;;;;;11.20;3.67;;;21.10;99.90;;;;;;6282893;22;20026;-70
2022/10/17 10:21:15;;;;;;;5.78;2.88;;;21.20;99.90;;;;;;6282399;22;20305;-69
2022/10/17 10:23:43;;;;;;;8.63;2.67;;;21.40;99.90;;;;;;6282168;22;20000;-72
2022/10/17 10:26:18;;;;;;;7.90;2.50;;;21.60;99.90;;;;;;6282798;22;20290;-70
2022/10/17 10:28:51;;;;;;;8.85;2.90;;;21.80;99.90;;;;;;6254847;22;20348;-70
2022/10/17 10:31:25;;;;;;;9.70;3.10;;;22.00;99.90;;;;;;6282703;22;20011;-70
2022/10/17 10:33:51;;;;;;;12.57;2.90;;;22.20;99.90;;;;;;6282322;22;20007;-72
2022/10/17 10:36:21;;;;;;;5.65;2.38;;;22.40;99.90;;;;;;6283040;22;20010;-71
2022/10/17 10:38:53;;;;;;;5.95;2.55;;;22.70;99.90;;;;;;6282283;22;20003;-71
2022/10/17 10:41:20;;;;;;;7.22;2.75;;;23.10;99.90;;;;;;6282755;22;20049;-72
2022/10/17 10:43:49;;;;;;;11.75;2.95;;;23.30;99.90;;;;;;6230414;22;20147;-72
2022/10/17 10:46:20;;;;;;;8.32;3.08;;;23.60;99.90;;;;;;6282805;22;20042;-72
2022/10/17 10:48:58;;;;;;;9.98;2.78;;;24.00;99.90;;;;;;6282380;22;20309;-74
2022/10/17 10:51:47;;;;;;;12.23;2.53;;;24.30;99.90;;;;;;6256229;22;20011;-74
2022/10/17 10:54:23;;;;;;;5.45;2.80;;;24.60;99.10;;;;;;6230987;22;20297;-71
2022/10/17 10:57:02;;;;;;;6.95;2.80;;;24.90;98.70;;;;;;6282237;22;20014;-74
2022/10/17 10:59:30;;;;;;;7.32;2.20;;;25.20;97.80;;;;;;6257466;22;20290;-73
2022/10/17 11:01:59;;;;;;;7.63;2.28;;;25.40;97.10;;;;;;6283346;22;20050;-73
2022/10/17 11:04:43;;;;;;;6.53;1.95;;;25.60;96.70;;;;;;6258106;22;20216;-72
2022/10/17 11:07:21;;;;;;;7.35;3.55;;;25.90;96.00;;;;;;6284910;22;19995;-73
2022/10/17 11:10:04;;;;;;;67.75;38.17;;;26.30;95.50;;;;;;6256782;22;20360;-74
2022/10/17 11:12:49;;;;;;;45.22;24.98;;;26.50;94.80;;;;;;6257505;22;20023;-72
2022/10/17 11:15:49;;;;;;;20.92;12.27;;;26.80;94.40;;;;;;6284554;22;20011;-71
2022/10/17 11:18:53;;;;;;;8.93;4.82;;;27.30;93.50;;;;;;6264586;22;20057;-74
2022/10/17 11:21:29;;;;;;;12.35;8.15;;;28.00;92.80;;;;;;6252207;22;20008;-71
2022/10/17 11:24:32;;;;;;;12.00;6.10;;;28.70;92.00;;;;;;6283865;22;20203;-71
2022/10/17 11:27:01;;;;;;;16.73;7.18;;;29.40;90.40;;;;;;6283702;22;20057;-72
2022/10/17 11:29:32;;;;;;;14.20;4.55;;;30.00;89.20;;;;;;6257769;22;20240;-70
2022/10/17 11:32:06;;;;;;;8.35;3.05;;;30.50;86.10;;;;;;6284109;22;20003;-71
2022/10/17 11:34:39;;;;;;;6.90;3.53;;;30.90;83.90;;;;;;6283599;22;20008;-71
2022/10/17 11:37:14;;;;;;;9.98;5.05;;;31.10;82.60;;;;;;6257413;22;20066;-72
2022/10/17 11:39:53;;;;;;;11.13;5.45;;;31.50;81.80;;;;;;6283562;22;20010;-71
2022/10/17 11:42:39;;;;;;;7.38;3.55;;;32.20;79.20;;;;;;6257430;22;20004;-72
2022/10/17 11:45:15;;;;;;;7.45;1.95;;;33.00;75.90;;;;;;6284487;22;20003;-73
2022/10/17 11:47:53;;;;;;;3.65;1.13;;;33.90;71.00;;;;;;6283570;22;20283;-73
2022/10/17 11:50:29;;;;;;;3.28;1.00;;;34.60;66.70;;;;;;6284653;22;20000;-73
2022/10/17 11:53:12;;;;;;;3.22;0.93;;;35.10;61.10;;;;;;6283881;22;20022;-72
2022/10/17 11:55:39;;;;;;;5.65;1.33;;;35.00;59.30;;;;;;6283527;22;20312;-71
2022/10/17 11:58:17;;;;;;;3.47;0.90;;;35.20;59.00;;;;;;6284200;22;20004;-71
2022/10/17 12:00:45;;;;;;;3.20;0.82;;;35.00;56.80;;;;;;6283299;22;20058;-72
2022/10/17 12:03:41;;;;;;;3.70;1.05;;;34.30;57.70;;;;;;6283665;22;20012;-72
2022/10/17 12:06:12;;;;;;;4.85;0.60;;;34.40;57.80;;;;;;6284388;22;20094;-72
2022/10/17 12:08:45;;;;;;;3.65;0.80;;;34.30;57.00;;;;;;6282906;22;19999;-72
2022/10/17 12:11:33;;;;;;;2.83;0.88;;;34.50;56.30;;;;;;6284096;22;20010;-73
2022/10/17 12:13:59;;;;;;;4.93;1.00;;;35.20;56.30;;;;;;6283963;22;19999;-71
2022/10/17 12:16:28;;;;;;;3.70;0.70;;;34.60;56.00;;;;;;6284905;22;20004;-73
2022/10/17 12:19:00;;;;;;;4.35;0.70;;;34.50;56.50;;;;;;6284225;22;20004;-71
2022/10/17 12:21:26;;;;;;;3.58;0.90;;;34.80;55.40;;;;;;6284829;22;20106;-73
2022/10/17 12:23:53;;;;;;;3.70;0.73;;;34.80;55.40;;;;;;6283397;22;20011;-71
2022/10/17 12:26:28;;;;;;;3.95;0.90;;;34.90;56.30;;;;;;6284342;22;20007;-71
2022/10/17 12:28:55;;;;;;;1.95;0.68;;;35.80;55.00;;;;;;6281727;22;20038;-72
2022/10/17 12:31:26;;;;;;;3.43;1.07;;;35.70;54.70;;;;;;6283684;22;20067;-72
2022/10/17 12:33:57;;;;;;;4.80;1.02;;;35.80;54.20;;;;;;6283560;22;20496;-74
2022/10/17 12:36:26;;;;;;;7.60;0.80;;;36.00;53.80;;;;;;6283892;22;20000;-72
2022/10/17 12:39:00;;;;;;;2.60;0.80;;;35.90;53.10;;;;;;6271595;22;20067;-73
2022/10/17 12:41:38;;;;;;;3.03;1.00;;;35.80;53.20;;;;;;6252994;23;20008;-72
2022/10/17 12:44:13;;;;;;;4.25;0.80;;;36.50;53.10;;;;;;6252906;23;20000;-72
2022/10/17 12:46:44;;;;;;;3.53;0.75;;;36.60;52.60;;;;;;6252594;23;20281;-73
2022/10/17 12:49:21;;;;;;;5.28;0.88;;;36.10;53.10;;;;;;6252790;23;20004;-70
2022/10/17 12:52:17;;;;;;;5.30;0.93;;;35.70;53.70;;;;;;6252219;23;20234;-72
2022/10/17 12:54:50;;;;;;;4.53;0.90;;;36.10;53.20;;;;;;6252118;23;20047;-71
2022/10/17 12:57:25;;;;;;;3.17;0.80;;;36.30;53.30;;;;;;6252673;23;20000;-71
2022/10/17 12:59:52;;;;;;;3.45;0.80;;;37.80;52.40;;;;;;6252751;23;19999;-72
2022/10/17 13:02:24;;;;;;;4.03;0.80;;;37.90;51.50;;;;;;6252676;23;20012;-72
2022/10/17 13:05:06;;;;;;;5.80;0.80;;;37.80;53.60;;;;;;6251863;23;20000;-72
2022/10/17 13:07:33;;;;;;;3.25;0.90;;;37.70;51.20;;;;;;6253231;23;20055;-69
2022/10/17 13:10:03;;;;;;;4.97;0.97;;;36.50;52.30;;;;;;6252864;23;20007;-71
2022/10/17 13:12:33;;;;;;;3.35;0.93;;;36.60;52.40;;;;;;6252742;23;20030;-70
2022/10/17 13:15:03;;;;;;;2.83;0.70;;;37.00;51.50;;;;;;6252249;23;20228;-71
2022/10/17 13:17:29;;;;;;;2.42;0.70;;;37.10;51.50;;;;;;6252467;23;20000;-69
2022/10/17 13:19:56;;;;;;;2.55;0.90;;;37.50;52.00;;;;;;6252283;23;19995;-70
2022/10/17 13:22:25;;;;;;;3.08;0.90;;;37.90;51.10;;;;;;6252865;23;20000;-70
2022/10/17 13:24:52;;;;;;;5.03;1.02;;;38.00;51.20;;;;;;6251707;23;20011;-70
2022/10/17 13:27:32;;;;;;;3.70;1.23;;;38.20;54.90;;;;;;6252850;23;20000;-69
2022/10/17 13:30:00;;;;;;;4.50;1.20;;;37.90;55.60;;;;;;6252119;23;20512;-71
2022/10/17 13:32:35;;;;;;;6.32;1.20;;;37.50;55.90;;;;;;6225857;23;20019;-71
2022/10/17 13:35:13;;;;;;;4.68;1.30;;;37.30;55.90;;;;;;6252580;23;20000;-70
2022/10/17 13:37:41;;;;;;;5.35;1.08;;;36.90;56.00;;;;;;6252053;23;20059;-71
2022/10/17 13:40:18;;;;;;;5.43;1.33;;;36.60;56.30;;;;;;6252224;23;20053;-71
2022/10/17 13:42:44;;;;;;;;;;;36.60;56.50;;;;;;6252433;23;20007;-72
2022/10/17 13:45:27;;;;;;;4.32;1.08;;;36.60;56.20;;;;;;6253135;23;19904;-71
2022/10/17 13:47:53;;;;;;;3.85;1.00;;;36.10;56.20;;;;;;6251790;23;20080;-70
2022/10/17 13:50:34;;;;;;;3.92;1.40;;;36.10;55.90;;;;;;6253071;23;20178;-69
2022/10/17 13:53:18;;;;;;;4.90;1.20;;;35.90;57.40;;;;;;6251896;23;20066;-69
2022/10/17 13:55:51;;;;;;;4.70;1.63;;;36.10;56.00;;;;;;6252338;23;20010;-69
2022/10/17 13:58:17;;;;;;;3.75;0.90;;;36.40;57.80;;;;;;6252604;23;20302;-70
2022/10/17 14:00:48;;;;;;;3.15;1.08;;;36.80;55.10;;;;;;6251609;23;20043;-70
2022/10/17 14:03:14;;;;;;;4.40;1.00;;;37.50;54.80;;;;;;6200486;23;20016;-71
2022/10/17 14:06:02;;;;;;;5.10;1.13;;;37.70;55.10;;;;;;6252540;23;20000;-73
2022/10/17 14:08:30;;;;;;;4.80;1.13;;;37.50;53.30;;;;;;6225995;23;20004;-71
2022/10/17 14:10:56;;;;;;;6.20;1.00;;;36.90;54.00;;;;;;6251876;23;19996;-72
2022/10/17 14:13:24;;;;;;;2.97;1.00;;;36.90;53.90;;;;;;6252239;23;20189;-71
2022/10/17 14:15:52;;;;;;;2.92;1.00;;;37.30;53.80;;;;;;6252290;23;19995;-69
2022/10/17 14:18:24;;;;;;;4.68;1.25;;;38.00;52.90;;;;;;6252325;23;20321;-71
2022/10/17 14:20:50;;;;;;;4.13;1.35;;;38.50;52.60;;;;;;6251653;23;20172;-70
2022/10/17 14:23:43;;;;;;;3.30;1.13;;;38.60;51.70;;;;;;6252635;23;20004;-70
2022/10/17 14:26:12;;;;;;;2.00;0.90;;;39.20;52.50;;;;;;6247295;23;20011;-76
2022/10/17 14:28:39;;;;;;;2.92;1.10;;;39.30;50.60;;;;;;6200744;23;20340;-69
2022/10/17 14:31:13;;;;;;;6.05;1.20;;;39.30;51.40;;;;;;6254325;23;20000;-68
2022/10/17 14:33:44;;;;;;;4.15;1.10;;;37.80;51.10;;;;;;6255618;23;20000;-71
2022/10/17 14:36:10;;;;;;;4.15;0.98;;;36.70;52.70;;;;;;6255583;23;20010;-69
2022/10/17 14:38:36;;;;;;;2.42;1.02;;;35.50;53.60;;;;;;6255992;23;20019;-70
2022/10/17 14:41:12;;;;;;;4.25;1.45;;;34.30;55.20;;;;;;6255373;23;20080;-70
2022/10/17 14:43:37;;;;;;;4.03;1.25;;;33.40;56.30;;;;;;6255852;23;20000;-71
2022/10/17 14:46:04;;;;;;;4.35;1.60;;;32.90;57.20;;;;;;6255271;23;20278;-70
2022/10/17 14:48:32;;;;;;;3.38;1.20;;;32.30;58.40;;;;;;6256190;23;20008;-70
2022/10/17 14:51:14;;;;;;;3.45;1.20;;;32.00;61.50;;;;;;6255187;23;20000;-70
2022/10/17 14:53:42;;;;;;;5.07;1.17;;;32.10;59.60;;;;;;6255105;23;20058;-71
2022/10/17 14:56:32;;;;;;;6.20;1.42;;;32.40;58.40;;;;;;6255782;23;20011;-68
2022/10/17 14:58:58;;;;;;;3.25;1.45;;;32.50;59.50;;;;;;6255598;23;20059;-71
2022/10/17 15:01:24;;;;;;;5.82;1.20;;;32.00;58.60;;;;;;6256226;23;20163;-70
2022/10/17 15:03:49;;;;;;;4.15;1.33;;;31.70;60.00;;;;;;6254678;23;20409;-70
2022/10/17 15:06:34;;;;;;;4.40;1.17;;;31.20;60.20;;;;;;6255417;23;20026;-68
2022/10/17 15:09:00;;;;;;;3.53;1.45;;;30.60;60.80;;;;;;6255223;23;20007;-69
2022/10/17 15:11:26;;;;;;;3.20;1.08;;;30.60;61.50;;;;;;6255896;23;20055;-70
2022/10/17 15:13:51;;;;;;;3.25;1.23;;;30.60;62.50;;;;;;6254723;23;20000;-70
2022/10/17 15:16:23;;;;;;;3.13;1.60;;;30.10;63.30;;;;;;6255753;23;20078;-70
2022/10/17 15:18:50;;;;;;;3.00;1.20;;;30.20;64.70;;;;;;6255114;23;20000;-70
2022/10/17 15:21:22;;;;;;;4.88;1.48;;;30.50;61.80;;;;;;6255353;23;20211;-70
2022/10/17 15:23:48;;;;;;;3.25;1.00;;;30.80;63.30;;;;;;6254980;23;20000;-70
2022/10/17 15:26:24;;;;;;;4.75;1.80;;;31.10;63.40;;;;;;6255610;23;20000;-70
2022/10/17 15:28:51;;;;;;;4.28;1.80;;;32.20;62.70;;;;;;6255018;23;20023;-70
2022/10/17 15:31:19;;;;;;;5.30;1.63;;;33.10;62.10;;;;;;6255423;23;19999;-70
2022/10/17 15:33:46;;;;;;;5.47;1.80;;;34.00;59.50;;;;;;6254871;23;20186;-70
2022/10/17 15:36:37;;;;;;;3.22;1.23;;;34.80;58.80;;;;;;6255910;23;20190;-70
2022/10/17 15:39:03;;;;;;;3.70;1.55;;;35.30;58.60;;;;;;6255292;23;20037;-71
2022/10/17 15:41:31;;;;;;;5.15;1.65;;;35.40;57.80;;;;;;6254845;23;20201;-71
2022/10/17 15:43:57;;;;;;;3.20;1.27;;;34.90;58.40;;;;;;6253588;23;20028;-70
2022/10/17 15:46:28;;;;;;;4.25;1.58;;;34.20;58.40;;;;;;6228681;23;20000;-70
2022/10/17 15:48:55;;;;;;;3.28;1.00;;;33.30;60.30;;;;;;6254973;23;20020;-70
2022/10/17 15:51:22;;;;;;;6.90;3.47;;;32.40;60.70;;;;;;6255180;23;20182;-70
2022/10/17 15:53:47;;;;;;;27.88;24.98;;;31.60;63.20;;;;;;6254146;23;20008;-69
2022/10/17 15:56:35;;;;;;;23.27;20.77;;;30.90;65.40;;;;;;6255485;23;20039;-68
2022/10/17 15:59:09;;;;;;;5.15;2.50;;;30.30;65.80;;;;;;6254538;23;20012;-71
2022/10/17 16:01:35;;;;;;;6.28;2.10;;;29.30;65.40;;;;;;6254633;23;20038;-72
2022/10/17 16:04:01;;;;;;;3.75;1.85;;;28.50;67.70;;;;;;6254718;23;20194;-73
2022/10/17 16:06:27;;;;;;;7.22;1.80;;;27.80;68.20;;;;;;6255274;23;20000;-70
2022/10/17 16:08:53;;;;;;;4.55;1.77;;;27.30;69.70;;;;;;6254627;23;20023;-70
2022/10/17 16:11:40;;;;;;;6.15;2.35;;;27.10;72.80;;;;;;6253685;23;20313;-69
2022/10/17 16:14:13;;;;;;;6.63;2.88;;;26.90;73.20;;;;;;6253192;23;20012;-69
2022/10/17 16:16:39;;;;;;;7.18;2.55;;;26.60;73.30;;;;;;6253612;23;20305;-71
2022/10/17 16:19:05;;;;;;;7.13;2.90;;;26.30;76.00;;;;;;6253098;23;20020;-71
2022/10/17 16:21:36;;;;;;;9.27;5.35;;;26.00;77.20;;;;;;6253481;23;20309;-71
2022/10/17 16:24:03;;;;;;;6.95;3.70;;;25.70;76.60;;;;;;6252833;23;20023;-70
2022/10/17 16:26:29;;;;;;;9.93;4.18;;;25.40;78.50;;;;;;6253874;23;20012;-71
2022/10/17 16:28:56;;;;;;;6.65;3.53;;;25.10;79.10;;;;;;6253130;23;20000;-70
2022/10/17 16:31:31;;;;;;;9.90;3.80;;;24.90;79.70;;;;;;6226746;23;20008;-71
2022/10/17 16:33:58;;;;;;;7.32;3.08;;;24.60;79.00;;;;;;6253200;23;20031;-70
2022/10/17 16:36:24;;;;;;;7.07;3.85;;;24.40;81.80;;;;;;6253896;23;20004;-69
2022/10/17 16:38:52;;;;;;;10.45;3.85;;;24.10;82.20;;;;;;6253746;23;20206;-70
2022/10/17 16:41:30;;;;;;;4.95;3.00;;;24.00;83.90;;;;;;6251886;23;20004;-71
2022/10/17 16:43:58;;;;;;;7.57;3.83;;;23.70;82.90;;;;;;6252992;23;20056;-69
2022/10/17 16:46:27;;;;;;;10.48;4.95;;;23.50;84.20;;;;;;6253650;23;20064;-69
2022/10/17 16:48:53;;;;;;;;;;;23.20;86.80;;;;;;6253032;23;20050;-71
2022/10/17 16:51:20;;;;;;;6.43;2.78;;;22.90;87.60;;;;;;6253250;23;20177;-70
2022/10/17 16:53:51;;;;;;;6.40;2.85;;;22.80;87.70;;;;;;6253097;23;19984;-72
2022/10/17 16:56:19;;;;;;;8.45;3.15;;;22.40;89.30;;;;;;6225011;23;20015;-70
2022/10/17 16:58:46;;;;;;;9.40;4.25;;;22.20;89.60;;;;;;6253222;23;20026;-68
2022/10/17 17:01:20;;;;;;;6.93;4.15;;;22.10;90.80;;;;;;6252633;23;20000;-67
2022/10/17 17:03:46;;;;;;;28.50;13.32;;;22.00;90.50;;;;;;6252732;23;20019;-71
2022/10/17 17:06:15;;;;;;;83.53;32.03;;;21.80;90.70;;;;;;6225925;23;20204;-69
2022/10/17 17:08:42;;;;;;;25.33;13.60;;;21.70;91.00;;;;;;6252786;23;20035;-70
2022/10/17 17:11:10;;;;;;;13.77;6.43;;;21.60;91.60;;;;;;6252158;23;20404;-67
2022/10/17 17:13:36;;;;;;;6.00;3.50;;;21.40;91.50;;;;;;6253158;23;20301;-71
2022/10/17 17:16:04;;;;;;;8.02;2.95;;;21.20;91.90;;;;;;6252932;23;20015;-69
2022/10/17 17:18:30;;;;;;;7.88;3.40;;;21.10;92.20;;;;;;6253918;23;20008;-69
2022/10/17 17:21:00;;;;;;;7.28;2.70;;;21.10;92.80;;;;;;6252787;23;20000;-69
2022/10/17 17:23:26;;;;;;;7.53;3.00;;;21.00;92.40;;;;;;6253440;23;20007;-69
2022/10/17 17:26:12;;;;;;;7.47;3.10;;;20.90;92.80;;;;;;6252428;23;19994;-69
2022/10/17 17:28:38;;;;;;;7.57;3.78;;;20.70;93.30;;;;;;6252618;23;20007;-69
2022/10/17 17:31:18;;;;;;;9.13;4.10;;;20.70;94.10;;;;;;6252183;23;20008;-71
2022/10/17 17:33:45;;;;;;;8.13;3.45;;;20.70;94.70;;;;;;6252984;23;19996;-71
2022/10/17 17:36:17;;;;;;;8.85;4.97;;;20.70;95.20;;;;;;6252661;23;20011;-73
2022/10/17 17:38:44;;;;;;;6.65;3.95;;;20.70;94.60;;;;;;6253360;23;20000;-72
2022/10/17 17:41:12;;;;;;;10.05;4.57;;;20.70;95.10;;;;;;6252791;23;20325;-71
2022/10/17 17:43:38;;;;;;;6.65;3.60;;;20.70;95.20;;;;;;6253081;23;20000;-71
2022/10/17 17:46:04;;;;;;;12.60;8.70;;;20.50;94.90;;;;;;6252791;23;20174;-71
2022/10/17 17:48:36;;;;;;;7.60;3.75;;;20.30;95.50;;;;;;6252679;23;20030;-71
2022/10/17 17:51:04;;;;;;;6.18;3.70;;;20.20;95.90;;;;;;6252661;23;19997;-72
2022/10/17 17:53:30;;;;;;;6.13;3.00;;;20.20;96.20;;;;;;6253323;23;20004;-70
2022/10/17 17:56:13;;;;;;;6.82;3.63;;;20.20;95.70;;;;;;6252363;23;20084;-70
2022/10/17 17:58:42;;;;;;;8.13;3.30;;;20.20;96.20;;;;;;6253191;23;20000;-70
2022/10/17 18:01:13;;;;;;;8.20;3.60;;;20.00;96.00;;;;;;6252009;23;20149;-73
2022/10/17 18:03:40;;;;;;;8.90;4.28;;;19.90;96.70;;;;;;6253264;23;20012;-74
2022/10/17 18:06:07;;;;;;;8.88;4.80;;;19.80;98.00;;;;;;6253220;23;20336;-71
2022/10/17 18:08:33;;;;;;;11.30;5.25;;;19.80;98.40;;;;;;6254806;23;20000;-75
2022/10/17 18:10:59;;;;;;;14.13;5.47;;;19.60;98.70;;;;;;6254207;23;19992;-74